createdAt,value
2023-02-17T00:04:18.139Z,78173.56
2023-02-17T00:09:19.652Z,78159.53
2023-02-17T00:14:21.169Z,78147.50
2023-02-17T00:19:25.988Z,78133.47
2023-02-17T00:24:29.722Z,78125.44
2023-02-17T00:29:31.447Z,78119.44
2023-02-17T00:34:33.003Z,78099.38
2023-02-17T00:39:34.503Z,78105.41
2023-02-17T00:44:36.044Z,78087.34
2023-02-17T00:49:37.516Z,78085.34
2023-02-17T00:54:40.658Z,78065.31
2023-02-17T00:59:42.104Z,78069.31
2023-02-17T01:04:43.642Z,78067.31
2023-02-17T01:09:45.126Z,78055.28
2023-02-17T01:14:46.643Z,78041.25
2023-02-17T01:19:48.142Z,78043.25
2023-02-17T01:24:50.433Z,78039.22
2023-02-17T01:29:52.007Z,78015.19
2023-02-17T01:34:53.484Z,78013.16
2023-02-17T01:39:55.034Z,78009.16
2023-02-17T01:45:18.227Z,77979.09
2023-02-17T01:50:23.794Z,77973.06
2023-02-17T01:55:26.022Z,77989.09
2023-02-17T02:00:30.207Z,77955.03
2023-02-17T02:05:31.852Z,77963.03
2023-02-17T02:10:33.342Z,77957.03
2023-02-17T02:15:52.351Z,77932.97
2023-02-17T02:21:13.604Z,77926.97
2023-02-17T02:26:59.322Z,77914.94
2023-02-17T02:32:16.023Z,77916.94
2023-02-17T02:37:26.583Z,77910.91
2023-02-17T02:42:28.374Z,77878.84
2023-02-17T02:47:38.900Z,77872.81
2023-02-17T02:52:43.278Z,77856.78
2023-02-17T02:58:04.988Z,77850.75
2023-02-17T03:03:28.926Z,77848.75
2023-02-17T03:08:38.515Z,77846.75
2023-02-17T03:13:41.073Z,77840.75
2023-02-17T03:18:42.536Z,77832.72
2023-02-17T03:23:44.112Z,77834.72
2023-02-17T03:28:45.645Z,77814.69
2023-02-17T03:33:47.212Z,77818.69
2023-02-17T03:38:48.727Z,77806.66
2023-02-17T03:43:50.136Z,77790.63
2023-02-17T03:48:51.626Z,77786.59
2023-02-17T03:53:53.084Z,77780.59
2023-02-17T03:58:55.438Z,77776.59
2023-02-17T04:03:57.096Z,77758.53
2023-02-17T04:08:58.614Z,77752.53
2023-02-17T04:14:00.105Z,77746.50
2023-02-17T04:19:01.641Z,77742.50
2023-02-17T04:24:04.193Z,77718.44
2023-02-17T04:29:05.923Z,77714.44
2023-02-17T04:34:07.474Z,77714.44
2023-02-17T04:39:08.993Z,77708.41
2023-02-17T04:44:10.515Z,77690.38
2023-02-17T04:49:12.074Z,77686.38
2023-02-17T04:54:13.634Z,77688.38
2023-02-17T04:59:15.070Z,77686.38
2023-02-17T05:04:16.593Z,77674.34
2023-02-17T05:09:18.042Z,77678.34
2023-02-17T05:14:19.450Z,77654.28
2023-02-17T05:19:20.970Z,77652.28
2023-02-17T05:24:22.704Z,77644.25
2023-02-17T05:29:24.833Z,77622.22
2023-02-17T05:34:26.396Z,77622.22
2023-02-17T05:39:27.989Z,77630.22
2023-02-17T05:44:29.507Z,77614.19
2023-02-17T05:49:31.068Z,77614.19
2023-02-17T05:54:32.773Z,77600.16
2023-02-17T05:59:34.307Z,77602.16
2023-02-17T06:04:36.046Z,77590.13
2023-02-17T06:09:37.588Z,77576.09
2023-02-17T06:14:39.112Z,77556.06
2023-02-17T06:19:40.611Z,77568.09
2023-02-17T06:24:42.095Z,77566.06
2023-02-17T06:29:44.674Z,77564.06
2023-02-17T06:34:46.087Z,77554.03
2023-02-17T06:39:47.723Z,77552.03
2023-02-17T06:44:49.169Z,77554.03
2023-02-17T06:49:50.631Z,77538.00
2023-02-17T06:54:52.243Z,77542.03
2023-02-17T06:59:53.791Z,77523.97
2023-02-17T07:04:55.321Z,77521.97
2023-02-17T07:09:56.856Z,77509.94
2023-02-17T07:14:58.418Z,77536.00
2023-02-17T07:19:59.934Z,77521.97
2023-02-17T07:25:01.474Z,77523.97
2023-02-17T07:30:03.864Z,77505.94
2023-02-17T07:35:05.903Z,77499.91
2023-02-17T07:40:07.787Z,77501.91
2023-02-17T07:45:09.343Z,77481.88
2023-02-17T07:50:10.939Z,77485.88
2023-02-17T07:55:12.515Z,77467.84
2023-02-17T08:00:14.630Z,77457.81
2023-02-17T08:05:16.104Z,77461.84
2023-02-17T08:10:56.100Z,77443.78
2023-02-17T08:15:57.630Z,77427.75
2023-02-17T08:20:59.178Z,77419.72
2023-02-17T08:26:00.788Z,77427.75
2023-02-17T08:31:03.070Z,77399.69
2023-02-17T08:36:08.306Z,77383.66
2023-02-17T08:41:17.408Z,77383.66
2023-02-17T08:46:19.714Z,77389.66
2023-02-17T08:51:23.744Z,77403.69
2023-02-17T08:56:26.543Z,77423.75
2023-02-17T09:01:28.134Z,77407.69
2023-02-17T09:06:42.678Z,77387.66
2023-02-17T09:11:45.200Z,77387.66
2023-02-17T09:16:46.721Z,77355.56
2023-02-17T09:21:48.463Z,77345.56
2023-02-17T09:26:50.035Z,77337.53
2023-02-17T09:31:51.668Z,77339.53
2023-02-17T09:36:53.213Z,77337.53
2023-02-17T09:41:55.351Z,77339.53
2023-02-17T09:47:05.480Z,77327.50
2023-02-17T09:52:17.190Z,77341.53
2023-02-17T09:57:21.553Z,77337.53
2023-02-17T10:02:38.633Z,77323.50
2023-02-17T10:07:48.284Z,77329.53
2023-02-17T10:12:58.073Z,77319.50
2023-02-17T10:18:13.089Z,77333.53
2023-02-17T10:23:25.235Z,77339.53
2023-02-17T10:29:04.844Z,77323.50
2023-02-17T10:34:42.822Z,77305.47
2023-02-17T10:39:52.782Z,77299.44
2023-02-17T10:45:00.757Z,77311.47
2023-02-17T10:50:05.770Z,77313.47
2023-02-17T10:55:23.668Z,77303.47
2023-02-17T11:00:26.661Z,77313.47
2023-02-17T11:05:35.070Z,77303.47
2023-02-17T11:10:40.848Z,77295.44
2023-02-17T11:15:46.775Z,77279.41
2023-02-17T11:20:48.649Z,77283.41
2023-02-17T11:26:01.254Z,77277.41
2023-02-17T11:31:04.799Z,77275.41
2023-02-17T11:36:13.514Z,77277.41
2023-02-17T11:41:15.037Z,77291.44
2023-02-17T11:46:30.356Z,77275.41
2023-02-17T11:51:53.215Z,77279.41
2023-02-17T11:57:01.171Z,77267.38
2023-02-17T12:02:11.402Z,77257.34
2023-02-17T12:07:36.623Z,77239.31
2023-02-17T12:13:10.502Z,77251.34
2023-02-17T12:18:20.940Z,77247.31
2023-02-17T12:23:40.907Z,77233.28
2023-02-17T12:29:15.898Z,77243.31
2023-02-17T12:34:20.367Z,77181.19
2023-02-17T12:39:32.261Z,77195.22
2023-02-17T12:44:40.162Z,77223.28
2023-02-17T12:50:06.336Z,77239.31
2023-02-17T12:55:21.876Z,77237.31
2023-02-17T13:00:38.284Z,77247.31
2023-02-17T13:05:50.084Z,77243.31
2023-02-17T13:11:07.511Z,77213.25
2023-02-17T13:16:13.406Z,77241.31
2023-02-17T13:21:22.689Z,77233.28
2023-02-17T13:26:28.380Z,77227.28
2023-02-17T13:31:30.124Z,77219.25
2023-02-17T13:36:31.619Z,77249.34
2023-02-17T13:41:44.211Z,77233.28
2023-02-17T13:46:47.010Z,77211.25
2023-02-17T13:51:48.638Z,77247.31
2023-02-17T13:56:52.246Z,77249.34
2023-02-17T14:01:54.887Z,77257.34
2023-02-17T14:07:03.677Z,77253.34
2023-02-17T14:12:16.847Z,77251.34
2023-02-17T14:17:27.345Z,77231.28
2023-02-17T14:22:34.902Z,77249.34
2023-02-17T14:27:48.373Z,77263.38
2023-02-17T14:32:49.914Z,77263.38
2023-02-17T14:37:51.415Z,77277.41
2023-02-17T14:42:52.967Z,77253.34
2023-02-17T14:47:54.691Z,77291.44
2023-02-17T14:52:56.295Z,77323.50
2023-02-17T14:57:58.119Z,77327.50
2023-02-17T15:02:59.602Z,77325.50
2023-02-17T15:08:01.597Z,77381.63
2023-02-17T15:13:03.088Z,77387.66
2023-02-17T15:18:04.627Z,77411.72
2023-02-17T15:23:11.982Z,77437.78
2023-02-17T15:28:15.189Z,77451.81
2023-02-17T15:33:17.175Z,77485.88
2023-02-17T15:38:18.655Z,77501.91
2023-02-17T15:43:22.629Z,77532.00
2023-02-17T15:48:26.780Z,77540.00
2023-02-17T15:53:32.394Z,77564.06
2023-02-17T15:58:33.955Z,77574.09
2023-02-17T16:03:35.411Z,77616.19
2023-02-17T16:08:36.865Z,77616.19
2023-02-17T16:13:39.288Z,77628.22
2023-02-17T16:18:40.826Z,77656.28
2023-02-17T16:23:43.288Z,77658.31
2023-02-17T16:28:45.628Z,77682.34
2023-02-17T16:33:47.168Z,77710.44
2023-02-17T16:38:50.581Z,77724.47
2023-02-17T16:43:52.042Z,77708.41
2023-02-17T16:48:54.118Z,77730.47
2023-02-17T16:53:56.158Z,77718.44
2023-02-17T16:58:57.650Z,77736.50
2023-02-17T17:03:59.103Z,77756.53
2023-02-17T17:09:00.545Z,77766.56
2023-02-17T17:14:02.014Z,77794.63
2023-02-17T17:19:03.924Z,77806.66
2023-02-17T17:24:05.562Z,77802.66
2023-02-17T17:29:08.490Z,77806.66
2023-02-17T17:34:09.931Z,77816.69
2023-02-17T17:39:17.372Z,77810.66
2023-02-17T17:44:19.933Z,77824.69
2023-02-17T17:49:21.441Z,77826.72
2023-02-17T17:54:23.222Z,77848.75
2023-02-17T17:59:24.638Z,77858.78
2023-02-17T18:04:26.174Z,77864.81
2023-02-17T18:09:34.056Z,77876.84
2023-02-17T18:14:37.703Z,77864.81
2023-02-17T18:19:39.992Z,77886.84
2023-02-17T18:24:41.557Z,77890.88
2023-02-17T18:29:44.024Z,77898.88
2023-02-17T18:34:45.433Z,77912.91
2023-02-17T18:39:47.039Z,77910.91
2023-02-17T18:44:48.534Z,77938.97
2023-02-17T18:49:50.159Z,77969.06
2023-02-17T18:54:51.883Z,77943.00
2023-02-17T18:59:53.380Z,77965.06
2023-02-17T19:04:55.858Z,77997.13
2023-02-17T19:09:57.297Z,77987.09
2023-02-17T19:14:58.811Z,78005.16
2023-02-17T19:20:00.631Z,78027.22
2023-02-17T19:25:02.788Z,78029.22
2023-02-17T19:30:04.674Z,78057.28
2023-02-17T19:35:07.097Z,78069.31
2023-02-17T19:40:08.966Z,78079.34
2023-02-17T19:45:10.508Z,78091.38
2023-02-17T19:50:11.938Z,78095.38
2023-02-17T19:55:13.937Z,78091.38
2023-02-17T20:00:15.584Z,78105.41
2023-02-17T20:05:17.154Z,78091.38
2023-02-17T20:10:19.486Z,78109.41
2023-02-17T20:15:21.015Z,78103.41
2023-02-17T20:20:22.455Z,78093.38
2023-02-17T20:25:24.045Z,78105.41
2023-02-17T20:30:25.535Z,78119.44
2023-02-17T20:35:27.006Z,78111.41
2023-02-17T20:40:28.712Z,78115.44
2023-02-17T20:45:31.018Z,78113.44
2023-02-17T20:50:32.526Z,78101.41
2023-02-17T20:55:34.065Z,78109.41
2023-02-17T21:00:35.561Z,78147.50
2023-02-17T21:05:37.274Z,78171.56
2023-02-17T21:10:39.939Z,78185.59
2023-02-17T21:15:41.431Z,78183.59
2023-02-17T21:20:43.910Z,78203.66
2023-02-17T21:25:46.100Z,78241.75
2023-02-17T21:30:47.779Z,78239.75
2023-02-17T21:35:49.425Z,78235.72
2023-02-17T21:40:51.682Z,78237.75
2023-02-17T21:45:53.176Z,78253.78
2023-02-17T21:51:09.750Z,78263.81
2023-02-17T21:56:11.763Z,78271.81
2023-02-17T22:01:13.484Z,78263.81
2023-02-17T22:06:36.877Z,78275.84
2023-02-17T22:11:41.778Z,78307.91
2023-02-17T22:16:44.324Z,78305.91
2023-02-17T22:21:47.065Z,78336.00
2023-02-17T22:26:49.420Z,78327.97
2023-02-17T22:31:55.721Z,78317.94
2023-02-17T22:36:57.311Z,78315.94
2023-02-17T22:41:58.871Z,78331.97
2023-02-17T22:47:00.328Z,78327.97
2023-02-17T22:52:01.758Z,78325.97
2023-02-17T22:57:03.297Z,78307.91
2023-02-17T23:02:04.856Z,78313.94
2023-02-17T23:07:06.376Z,78327.97
2023-02-17T23:12:07.909Z,78333.97
2023-02-17T23:17:13.264Z,78342.00
2023-02-17T23:22:17.313Z,78360.06
2023-02-17T23:27:18.899Z,78354.03
2023-02-17T23:32:20.367Z,78364.06
2023-02-17T23:37:21.822Z,78360.06
2023-02-17T23:42:23.273Z,78368.06
2023-02-17T23:47:25.009Z,78366.06
2023-02-17T23:52:26.572Z,78366.06
2023-02-17T23:57:29.427Z,78374.09
